sensor_id;sensor_type;location;lat;lon;timestamp;pressure;altitude;pressure_sealevel;temperature
29701;BMP280;57917;51.380;-0.176;2023-07-29T00:03:22;100291.06;;;19.00
29701;BMP280;57917;51.380;-0.176;2023-07-29T00:09:09;100306.47;;;19.03
29701;BMP280;57917;51.380;-0.176;2023-07-29T00:14:59;100296.31;;;18.96
29701;BMP280;57917;51.380;-0.176;2023-07-29T00:20:45;100299.56;;;18.74
29701;BMP280;57917;51.380;-0.176;2023-07-29T00:26:32;100300.63;;;18.85
29701;BMP280;57917;51.380;-0.176;2023-07-29T00:32:20;100299.50;;;18.86
29701;BMP280;57917;51.380;-0.176;2023-07-29T00:38:07;100283.13;;;18.76
29701;BMP280;57917;51.380;-0.176;2023-07-29T00:43:53;100290.16;;;18.80
29701;BMP280;57917;51.380;-0.176;2023-07-29T00:49:40;100287.47;;;18.80
29701;BMP280;57917;51.380;-0.176;2023-07-29T00:55:27;100286.81;;;18.99
29701;BMP280;57917;51.380;-0.176;2023-07-29T01:01:15;100277.03;;;18.91
29701;BMP280;57917;51.380;-0.176;2023-07-29T01:07:33;100273.81;;;18.57
29701;BMP280;57917;51.380;-0.176;2023-07-29T01:13:33;100280.41;;;18.60
29701;BMP280;57917;51.380;-0.176;2023-07-29T01:19:42;100260.13;;;18.47
29701;BMP280;57917;51.380;-0.176;2023-07-29T01:25:31;100259.47;;;18.38
29701;BMP280;57917;51.380;-0.176;2023-07-29T01:31:40;100263.88;;;18.58
29701;BMP280;57917;51.380;-0.176;2023-07-29T01:37:32;100257.44;;;18.35
29701;BMP280;57917;51.380;-0.176;2023-07-29T01:43:20;100261.38;;;18.37
29701;BMP280;57917;51.380;-0.176;2023-07-29T01:49:12;100262.44;;;18.48
29701;BMP280;57917;51.380;-0.176;2023-07-29T01:54:59;100264.66;;;18.58
29701;BMP280;57917;51.380;-0.176;2023-07-29T02:00:45;100257.75;;;18.57
29701;BMP280;57917;51.380;-0.176;2023-07-29T02:06:32;100266.00;;;18.52
29701;BMP280;57917;51.380;-0.176;2023-07-29T02:12:19;100275.66;;;18.41
29701;BMP280;57917;51.380;-0.176;2023-07-29T02:18:06;100263.25;;;18.37
29701;BMP280;57917;51.380;-0.176;2023-07-29T02:23:54;100268.53;;;18.33
29701;BMP280;57917;51.380;-0.176;2023-07-29T02:29:41;100275.56;;;18.26
29701;BMP280;57917;51.380;-0.176;2023-07-29T02:35:28;100258.13;;;18.32
29701;BMP280;57917;51.380;-0.176;2023-07-29T02:41:14;100265.75;;;18.30
29701;BMP280;57917;51.380;-0.176;2023-07-29T02:47:03;100257.44;;;18.35
29701;BMP280;57917;51.380;-0.176;2023-07-29T02:52:50;100244.41;;;18.33
29701;BMP280;57917;51.380;-0.176;2023-07-29T02:58:37;100245.53;;;18.32
29701;BMP280;57917;51.380;-0.176;2023-07-29T03:04:24;100239.94;;;18.37
29701;BMP280;57917;51.380;-0.176;2023-07-29T03:10:11;100233.13;;;18.28
29701;BMP280;57917;51.380;-0.176;2023-07-29T03:16:13;100236.47;;;18.37
29701;BMP280;57917;51.380;-0.176;2023-07-29T03:22:05;100237.94;;;18.34
29701;BMP280;57917;51.380;-0.176;2023-07-29T03:27:52;100248.91;;;18.29
29701;BMP280;57917;51.380;-0.176;2023-07-29T03:33:39;100249.91;;;18.25
29701;BMP280;57917;51.380;-0.176;2023-07-29T03:39:26;100255.50;;;18.20
29701;BMP280;57917;51.380;-0.176;2023-07-29T03:45:13;100260.06;;;18.19
29701;BMP280;57917;51.380;-0.176;2023-07-29T03:51:00;100268.53;;;18.21
29701;BMP280;57917;51.380;-0.176;2023-07-29T03:56:47;100263.06;;;18.30
29701;BMP280;57917;51.380;-0.176;2023-07-29T04:02:34;100264.63;;;18.31
29701;BMP280;57917;51.380;-0.176;2023-07-29T04:08:23;100267.75;;;18.33
29701;BMP280;57917;51.380;-0.176;2023-07-29T04:14:10;100274.66;;;18.34
29701;BMP280;57917;51.380;-0.176;2023-07-29T04:19:57;100272.22;;;18.29
29701;BMP280;57917;51.380;-0.176;2023-07-29T04:25:49;100274.47;;;18.27
29701;BMP280;57917;51.380;-0.176;2023-07-29T04:31:36;100282.38;;;18.23
29701;BMP280;57917;51.380;-0.176;2023-07-29T04:37:23;100285.63;;;18.29
29701;BMP280;57917;51.380;-0.176;2023-07-29T04:43:10;100263.41;;;18.16
29701;BMP280;57917;51.380;-0.176;2023-07-29T04:48:57;100257.81;;;18.33
29701;BMP280;57917;51.380;-0.176;2023-07-29T04:54:44;100267.03;;;18.36
29701;BMP280;57917;51.380;-0.176;2023-07-29T05:00:31;100265.84;;;18.21
29701;BMP280;57917;51.380;-0.176;2023-07-29T05:06:18;100268.53;;;18.21
29701;BMP280;57917;51.380;-0.176;2023-07-29T05:12:05;100250.47;;;18.18
29701;BMP280;57917;51.380;-0.176;2023-07-29T05:17:52;100264.00;;;18.10
29701;BMP280;57917;51.380;-0.176;2023-07-29T05:23:39;100259.31;;;18.07
29701;BMP280;57917;51.380;-0.176;2023-07-29T05:29:26;100254.53;;;18.00
29701;BMP280;57917;51.380;-0.176;2023-07-29T05:35:13;100272.94;;;18.02
29701;BMP280;57917;51.380;-0.176;2023-07-29T05:41:01;100269.81;;;18.00
29701;BMP280;57917;51.380;-0.176;2023-07-29T05:46:48;100276.84;;;18.04
29701;BMP280;57917;51.380;-0.176;2023-07-29T05:52:34;100265.31;;;18.16
29701;BMP280;57917;51.380;-0.176;2023-07-29T05:58:21;100260.84;;;18.20
29701;BMP280;57917;51.380;-0.176;2023-07-29T06:04:08;100257.16;;;18.24
29701;BMP280;57917;51.380;-0.176;2023-07-29T06:09:55;100261.75;;;18.12
29701;BMP280;57917;51.380;-0.176;2023-07-29T06:15:42;100268.44;;;18.18
29701;BMP280;57917;51.380;-0.176;2023-07-29T06:21:30;100261.59;;;18.32
29701;BMP280;57917;51.380;-0.176;2023-07-29T06:27:17;100273.28;;;18.52
29701;BMP280;57917;51.380;-0.176;2023-07-29T06:33:04;100262.19;;;18.53
29701;BMP280;57917;51.380;-0.176;2023-07-29T06:38:51;100262.03;;;18.74
29701;BMP280;57917;51.380;-0.176;2023-07-29T06:44:39;100266.66;;;18.89
29701;BMP280;57917;51.380;-0.176;2023-07-29T06:50:26;100253.41;;;18.96
29701;BMP280;57917;51.380;-0.176;2023-07-29T06:56:12;100259.09;;;19.38
29701;BMP280;57917;51.380;-0.176;2023-07-29T07:01:59;100255.97;;;20.01
29701;BMP280;57917;51.380;-0.176;2023-07-29T07:07:49;100253.09;;;20.29
29701;BMP280;57917;51.380;-0.176;2023-07-29T07:13:36;100257.38;;;19.95
29701;BMP280;57917;51.380;-0.176;2023-07-29T07:19:22;100256.66;;;19.98
29701;BMP280;57917;51.380;-0.176;2023-07-29T07:25:09;100262.00;;;19.64
29701;BMP280;57917;51.380;-0.176;2023-07-29T07:30:56;100272.25;;;19.58
29701;BMP280;57917;51.380;-0.176;2023-07-29T07:36:43;100282.97;;;19.43
29701;BMP280;57917;51.380;-0.176;2023-07-29T07:42:31;100287.66;;;19.61
29701;BMP280;57917;51.380;-0.176;2023-07-29T07:48:17;100295.53;;;19.54
29701;BMP280;57917;51.380;-0.176;2023-07-29T07:54:06;100295.78;;;19.34
29701;BMP280;57917;51.380;-0.176;2023-07-29T07:59:54;100297.16;;;19.28
29701;BMP280;57917;51.380;-0.176;2023-07-29T08:05:40;100290.88;;;19.20
29701;BMP280;57917;51.380;-0.176;2023-07-29T08:11:27;100313.84;;;18.78
29701;BMP280;57917;51.380;-0.176;2023-07-29T08:17:14;100311.25;;;18.42
29701;BMP280;57917;51.380;-0.176;2023-07-29T08:23:04;100293.41;;;18.46
29701;BMP280;57917;51.380;-0.176;2023-07-29T08:28:51;100293.53;;;18.37
29701;BMP280;57917;51.380;-0.176;2023-07-29T08:34:41;100282.56;;;18.42
29701;BMP280;57917;51.380;-0.176;2023-07-29T08:40:29;100277.72;;;18.60
29701;BMP280;57917;51.380;-0.176;2023-07-29T08:46:16;100280.78;;;19.17
29701;BMP280;57917;51.380;-0.176;2023-07-29T08:52:04;100275.38;;;20.29
29701;BMP280;57917;51.380;-0.176;2023-07-29T08:57:52;100274.69;;;20.93
29701;BMP280;57917;51.380;-0.176;2023-07-29T09:03:41;100280.72;;;21.54
29701;BMP280;57917;51.380;-0.176;2023-07-29T09:09:28;100279.03;;;22.28
29701;BMP280;57917;51.380;-0.176;2023-07-29T09:15:26;100271.66;;;22.58
29701;BMP280;57917;51.380;-0.176;2023-07-29T09:21:15;100266.22;;;22.18
29701;BMP280;57917;51.380;-0.176;2023-07-29T09:27:02;100285.53;;;21.93
29701;BMP280;57917;51.380;-0.176;2023-07-29T09:32:54;100282.16;;;22.63
29701;BMP280;57917;51.380;-0.176;2023-07-29T09:38:42;100273.50;;;23.34
29701;BMP280;57917;51.380;-0.176;2023-07-29T09:44:36;100264.19;;;22.11
29701;BMP280;57917;51.380;-0.176;2023-07-29T09:50:26;100271.38;;;23.10
29701;BMP280;57917;51.380;-0.176;2023-07-29T09:56:25;100267.31;;;24.01
29701;BMP280;57917;51.380;-0.176;2023-07-29T10:02:15;100245.47;;;24.90
29701;BMP280;57917;51.380;-0.176;2023-07-29T10:08:04;100265.56;;;25.10
29701;BMP280;57917;51.380;-0.176;2023-07-29T10:13:52;100252.00;;;25.10
29701;BMP280;57917;51.380;-0.176;2023-07-29T10:19:56;100252.00;;;25.28
29701;BMP280;57917;51.380;-0.176;2023-07-29T10:26:05;100245.75;;;25.52
29701;BMP280;57917;51.380;-0.176;2023-07-29T10:31:52;100248.91;;;25.40
29701;BMP280;57917;51.380;-0.176;2023-07-29T10:37:41;100254.00;;;25.10
29701;BMP280;57917;51.380;-0.176;2023-07-29T10:44:02;100252.81;;;24.65
29701;BMP280;57917;51.380;-0.176;2023-07-29T10:49:59;100252.03;;;24.61
29701;BMP280;57917;51.380;-0.176;2023-07-29T10:55:52;100262.84;;;24.54
29701;BMP280;57917;51.380;-0.176;2023-07-29T11:01:56;100245.81;;;25.17
29701;BMP280;57917;51.380;-0.176;2023-07-29T11:07:49;100255.06;;;25.44
29701;BMP280;57917;51.380;-0.176;2023-07-29T11:13:43;100234.78;;;25.83
29701;BMP280;57917;51.380;-0.176;2023-07-29T11:19:32;100249.06;;;26.01
29701;BMP280;57917;51.380;-0.176;2023-07-29T11:25:21;100237.22;;;25.57
29701;BMP280;57917;51.380;-0.176;2023-07-29T11:31:08;100253.56;;;24.80
29701;BMP280;57917;51.380;-0.176;2023-07-29T11:36:57;100292.16;;;23.02
29701;BMP280;57917;51.380;-0.176;2023-07-29T11:42:45;100313.53;;;22.78
29701;BMP280;57917;51.380;-0.176;2023-07-29T11:48:33;100304.56;;;22.70
29701;BMP280;57917;51.380;-0.176;2023-07-29T11:54:20;100296.16;;;23.19
29701;BMP280;57917;51.380;-0.176;2023-07-29T12:00:11;100285.78;;;23.82
29701;BMP280;57917;51.380;-0.176;2023-07-29T12:06:16;100282.47;;;24.16
29701;BMP280;57917;51.380;-0.176;2023-07-29T12:12:07;100264.63;;;24.05
29701;BMP280;57917;51.380;-0.176;2023-07-29T12:18:01;100261.91;;;24.05
29701;BMP280;57917;51.380;-0.176;2023-07-29T12:23:50;100255.13;;;24.84
29701;BMP280;57917;51.380;-0.176;2023-07-29T12:29:42;100263.25;;;25.09
29701;BMP280;57917;51.380;-0.176;2023-07-29T12:35:38;100269.69;;;24.10
29701;BMP280;57917;51.380;-0.176;2023-07-29T12:41:25;100290.22;;;23.50
29701;BMP280;57917;51.380;-0.176;2023-07-29T12:47:12;100302.34;;;23.19
29701;BMP280;57917;51.380;-0.176;2023-07-29T12:53:00;100302.97;;;23.02
29701;BMP280;57917;51.380;-0.176;2023-07-29T12:58:47;100298.50;;;23.24
29701;BMP280;57917;51.380;-0.176;2023-07-29T13:04:33;100278.91;;;23.34
29701;BMP280;57917;51.380;-0.176;2023-07-29T13:10:21;100288.94;;;23.98
29701;BMP280;57917;51.380;-0.176;2023-07-29T13:16:07;100281.25;;;24.00
29701;BMP280;57917;51.380;-0.176;2023-07-29T13:21:55;100283.66;;;24.33
29701;BMP280;57917;51.380;-0.176;2023-07-29T13:27:42;100267.28;;;23.94
29701;BMP280;57917;51.380;-0.176;2023-07-29T13:33:29;100264.31;;;24.24
29701;BMP280;57917;51.380;-0.176;2023-07-29T13:39:26;100272.75;;;24.05
29701;BMP280;57917;51.380;-0.176;2023-07-29T13:45:14;100276.66;;;24.14
29701;BMP280;57917;51.380;-0.176;2023-07-29T13:51:01;100259.72;;;24.52
29701;BMP280;57917;51.380;-0.176;2023-07-29T13:56:49;100250.44;;;24.43
29701;BMP280;57917;51.380;-0.176;2023-07-29T14:02:52;100241.19;;;24.65
29701;BMP280;57917;51.380;-0.176;2023-07-29T14:08:39;100259.75;;;24.73
29701;BMP280;57917;51.380;-0.176;2023-07-29T14:14:29;100242.78;;;24.73
29701;BMP280;57917;51.380;-0.176;2023-07-29T14:20:16;100248.94;;;24.49
29701;BMP280;57917;51.380;-0.176;2023-07-29T14:26:04;100245.47;;;24.76
29701;BMP280;57917;51.380;-0.176;2023-07-29T14:31:50;100253.59;;;25.11
29701;BMP280;57917;51.380;-0.176;2023-07-29T14:37:37;100270.25;;;24.89
29701;BMP280;57917;51.380;-0.176;2023-07-29T14:43:25;100275.97;;;24.38
29701;BMP280;57917;51.380;-0.176;2023-07-29T14:49:12;100275.44;;;24.05
29701;BMP280;57917;51.380;-0.176;2023-07-29T14:54:59;100286.63;;;23.96
29701;BMP280;57917;51.380;-0.176;2023-07-29T15:00:46;100305.81;;;23.74
29701;BMP280;57917;51.380;-0.176;2023-07-29T15:06:33;100305.59;;;24.07
29701;BMP280;57917;51.380;-0.176;2023-07-29T15:12:21;100306.06;;;24.30
29701;BMP280;57917;51.380;-0.176;2023-07-29T15:18:08;100301.03;;;24.25
29701;BMP280;57917;51.380;-0.176;2023-07-29T15:23:56;100300.69;;;24.37
29701;BMP280;57917;51.380;-0.176;2023-07-29T15:29:42;100292.88;;;24.11
29701;BMP280;57917;51.380;-0.176;2023-07-29T15:35:36;100294.31;;;23.87
29701;BMP280;57917;51.380;-0.176;2023-07-29T15:41:23;100290.44;;;23.85
29701;BMP280;57917;51.380;-0.176;2023-07-29T15:47:11;100289.75;;;24.02
29701;BMP280;57917;51.380;-0.176;2023-07-29T15:52:59;100299.56;;;23.63
29701;BMP280;57917;51.380;-0.176;2023-07-29T15:58:47;100311.34;;;23.37
29701;BMP280;57917;51.380;-0.176;2023-07-29T16:04:34;100303.78;;;23.10
29701;BMP280;57917;51.380;-0.176;2023-07-29T16:10:21;100316.44;;;23.42
29701;BMP280;57917;51.380;-0.176;2023-07-29T16:16:08;100333.78;;;23.45
29701;BMP280;57917;51.380;-0.176;2023-07-29T16:21:56;100349.28;;;23.08
29701;BMP280;57917;51.380;-0.176;2023-07-29T16:27:43;100332.19;;;22.97
29701;BMP280;57917;51.380;-0.176;2023-07-29T16:33:30;100335.53;;;22.83
29701;BMP280;57917;51.380;-0.176;2023-07-29T16:39:17;100329.63;;;22.71
29701;BMP280;57917;51.380;-0.176;2023-07-29T16:45:04;100330.03;;;22.73
29701;BMP280;57917;51.380;-0.176;2023-07-29T16:50:51;100331.75;;;22.88
29701;BMP280;57917;51.380;-0.176;2023-07-29T16:56:38;100335.69;;;22.61
29701;BMP280;57917;51.380;-0.176;2023-07-29T17:02:25;100333.44;;;22.66
29701;BMP280;57917;51.380;-0.176;2023-07-29T17:08:12;100332.00;;;22.76
29701;BMP280;57917;51.380;-0.176;2023-07-29T17:13:59;100331.91;;;22.69
29701;BMP280;57917;51.380;-0.176;2023-07-29T17:19:49;100327.38;;;22.76
29701;BMP280;57917;51.380;-0.176;2023-07-29T17:25:55;100337.31;;;22.69
29701;BMP280;57917;51.380;-0.176;2023-07-29T17:31:42;100347.44;;;22.79
29701;BMP280;57917;51.380;-0.176;2023-07-29T17:37:30;100349.31;;;22.75
29701;BMP280;57917;51.380;-0.176;2023-07-29T17:43:17;100374.31;;;22.68
29701;BMP280;57917;51.380;-0.176;2023-07-29T17:49:07;100368.38;;;22.89
29701;BMP280;57917;51.380;-0.176;2023-07-29T17:54:55;100363.72;;;22.86
29701;BMP280;57917;51.380;-0.176;2023-07-29T18:00:45;100373.59;;;22.75
29701;BMP280;57917;51.380;-0.176;2023-07-29T18:06:38;100375.00;;;22.62
29701;BMP280;57917;51.380;-0.176;2023-07-29T18:12:25;100389.91;;;22.23
29701;BMP280;57917;51.380;-0.176;2023-07-29T18:18:13;100390.72;;;22.27
29701;BMP280;57917;51.380;-0.176;2023-07-29T18:24:00;100397.25;;;22.52
29701;BMP280;57917;51.380;-0.176;2023-07-29T18:29:47;100396.66;;;22.65
29701;BMP280;57917;51.380;-0.176;2023-07-29T18:35:34;100405.84;;;22.61
29701;BMP280;57917;51.380;-0.176;2023-07-29T18:41:21;100412.25;;;22.82
29701;BMP280;57917;51.380;-0.176;2023-07-29T18:47:08;100385.22;;;22.46
29701;BMP280;57917;51.380;-0.176;2023-07-29T18:52:56;100381.72;;;21.89
29701;BMP280;57917;51.380;-0.176;2023-07-29T18:58:45;100395.47;;;21.58
29701;BMP280;57917;51.380;-0.176;2023-07-29T19:04:32;100401.41;;;21.67
29701;BMP280;57917;51.380;-0.176;2023-07-29T19:10:19;100401.84;;;21.28
29701;BMP280;57917;51.380;-0.176;2023-07-29T19:16:08;100403.34;;;21.06
29701;BMP280;57917;51.380;-0.176;2023-07-29T19:22:05;100399.66;;;20.95
29701;BMP280;57917;51.380;-0.176;2023-07-29T19:27:53;100408.28;;;20.66
29701;BMP280;57917;51.380;-0.176;2023-07-29T19:33:45;100426.41;;;20.69
29701;BMP280;57917;51.380;-0.176;2023-07-29T19:39:32;100427.28;;;20.73
29701;BMP280;57917;51.380;-0.176;2023-07-29T19:45:19;100428.00;;;20.70
29701;BMP280;57917;51.380;-0.176;2023-07-29T19:51:09;100431.78;;;20.69
29701;BMP280;57917;51.380;-0.176;2023-07-29T19:56:55;100437.94;;;20.51
29701;BMP280;57917;51.380;-0.176;2023-07-29T20:02:42;100457.63;;;20.39
29701;BMP280;57917;51.380;-0.176;2023-07-29T20:08:29;100454.16;;;20.23
29701;BMP280;57917;51.380;-0.176;2023-07-29T20:14:16;100457.19;;;20.37
29701;BMP280;57917;51.380;-0.176;2023-07-29T20:20:03;100471.59;;;20.29
29701;BMP280;57917;51.380;-0.176;2023-07-29T20:25:55;100481.69;;;20.01
29701;BMP280;57917;51.380;-0.176;2023-07-29T20:31:44;100486.44;;;20.08
29701;BMP280;57917;51.380;-0.176;2023-07-29T20:37:35;100489.44;;;20.06
29701;BMP280;57917;51.380;-0.176;2023-07-29T20:43:24;100490.56;;;19.90
29701;BMP280;57917;51.380;-0.176;2023-07-29T20:49:11;100498.38;;;19.95
29701;BMP280;57917;51.380;-0.176;2023-07-29T20:54:58;100502.16;;;19.94
29701;BMP280;57917;51.380;-0.176;2023-07-29T21:00:47;100504.53;;;19.95
29701;BMP280;57917;51.380;-0.176;2023-07-29T21:06:37;100507.06;;;19.88
29701;BMP280;57917;51.380;-0.176;2023-07-29T21:12:28;100513.38;;;19.80
29701;BMP280;57917;51.380;-0.176;2023-07-29T21:18:14;100521.63;;;19.87
29701;BMP280;57917;51.380;-0.176;2023-07-29T21:24:01;100526.34;;;19.78
29701;BMP280;57917;51.380;-0.176;2023-07-29T21:29:48;100525.84;;;19.61
29701;BMP280;57917;51.380;-0.176;2023-07-29T21:35:35;100521.53;;;19.56
29701;BMP280;57917;51.380;-0.176;2023-07-29T21:47:36;100532.22;;;19.41
29701;BMP280;57917;51.380;-0.176;2023-07-29T21:53:26;100540.31;;;19.29
29701;BMP280;57917;51.380;-0.176;2023-07-29T21:59:12;100559.69;;;19.10
29701;BMP280;57917;51.380;-0.176;2023-07-29T22:04:59;100558.50;;;19.23
29701;BMP280;57917;51.380;-0.176;2023-07-29T22:10:47;100567.91;;;19.29
29701;BMP280;57917;51.380;-0.176;2023-07-29T22:16:36;100563.22;;;19.26
29701;BMP280;57917;51.380;-0.176;2023-07-29T22:22:27;100571.72;;;19.16
29701;BMP280;57917;51.380;-0.176;2023-07-29T22:28:27;100594.00;;;18.93
29701;BMP280;57917;51.380;-0.176;2023-07-29T22:34:14;100589.88;;;18.71
29701;BMP280;57917;51.380;-0.176;2023-07-29T22:40:01;100602.13;;;18.60
29701;BMP280;57917;51.380;-0.176;2023-07-29T22:45:53;100587.53;;;18.37
29701;BMP280;57917;51.380;-0.176;2023-07-29T22:51:40;100599.63;;;18.43
29701;BMP280;57917;51.380;-0.176;2023-07-29T22:57:27;100604.63;;;18.44
29701;BMP280;57917;51.380;-0.176;2023-07-29T23:03:17;100606.97;;;18.34
29701;BMP280;57917;51.380;-0.176;2023-07-29T23:09:04;100608.28;;;18.28
29701;BMP280;57917;51.380;-0.176;2023-07-29T23:14:51;100605.28;;;18.09
29701;BMP280;57917;51.380;-0.176;2023-07-29T23:20:37;100605.28;;;18.09
29701;BMP280;57917;51.380;-0.176;2023-07-29T23:26:24;100608.78;;;17.89
29701;BMP280;57917;51.380;-0.176;2023-07-29T23:32:37;100611.31;;;17.65
29701;BMP280;57917;51.380;-0.176;2023-07-29T23:39:39;100621.53;;;17.71
29701;BMP280;57917;51.380;-0.176;2023-07-29T23:45:26;100608.84;;;17.80
29701;BMP280;57917;51.380;-0.176;2023-07-29T23:51:18;100602.00;;;17.91
29701;BMP280;57917;51.380;-0.176;2023-07-29T23:57:04;100600.13;;;17.71
